sensor_id;sensor_type;location;lat;lon;timestamp;P1;durP1;ratioP1;P2;durP2;ratioP2
63902;SDS011;50072;50.678;13.938;2023-05-10T00:01:38;4.97;;;2.90;;
63902;SDS011;50072;50.678;13.938;2023-05-10T00:04:04;5.68;;;3.00;;
63902;SDS011;50072;50.678;13.938;2023-05-10T00:06:30;5.03;;;2.97;;
63902;SDS011;50072;50.678;13.938;2023-05-10T00:08:57;5.90;;;3.20;;
63902;SDS011;50072;50.678;13.938;2023-05-10T00:11:23;5.93;;;2.60;;
63902;SDS011;50072;50.678;13.938;2023-05-10T00:13:49;5.22;;;2.88;;
63902;SDS011;50072;50.678;13.938;2023-05-10T00:16:15;5.13;;;3.15;;
63902;SDS011;50072;50.678;13.938;2023-05-10T00:18:41;5.13;;;2.92;;
63902;SDS011;50072;50.678;13.938;2023-05-10T00:21:06;6.75;;;3.45;;
63902;SDS011;50072;50.678;13.938;2023-05-10T00:23:32;4.93;;;2.97;;
63902;SDS011;50072;50.678;13.938;2023-05-10T00:25:58;5.85;;;3.20;;
63902;SDS011;50072;50.678;13.938;2023-05-10T00:28:24;4.78;;;2.88;;
63902;SDS011;50072;50.678;13.938;2023-05-10T00:30:50;6.75;;;2.83;;
63902;SDS011;50072;50.678;13.938;2023-05-10T00:33:15;6.60;;;2.67;;
63902;SDS011;50072;50.678;13.938;2023-05-10T00:35:42;3.90;;;2.35;;
63902;SDS011;50072;50.678;13.938;2023-05-10T00:38:09;5.68;;;2.45;;
63902;SDS011;50072;50.678;13.938;2023-05-10T00:40:46;4.18;;;2.30;;
63902;SDS011;50072;50.678;13.938;2023-05-10T00:43:14;5.35;;;2.72;;
63902;SDS011;50072;50.678;13.938;2023-05-10T00:45:40;5.05;;;2.70;;
63902;SDS011;50072;50.678;13.938;2023-05-10T00:48:07;4.72;;;2.85;;
63902;SDS011;50072;50.678;13.938;2023-05-10T00:50:34;5.40;;;2.90;;
63902;SDS011;50072;50.678;13.938;2023-05-10T00:53:00;5.18;;;2.63;;
63902;SDS011;50072;50.678;13.938;2023-05-10T00:55:26;6.18;;;2.83;;
63902;SDS011;50072;50.678;13.938;2023-05-10T00:57:52;5.78;;;2.90;;
63902;SDS011;50072;50.678;13.938;2023-05-10T01:00:19;5.45;;;2.97;;
63902;SDS011;50072;50.678;13.938;2023-05-10T01:02:45;7.10;;;2.80;;
63902;SDS011;50072;50.678;13.938;2023-05-10T01:05:12;4.22;;;2.60;;
63902;SDS011;50072;50.678;13.938;2023-05-10T01:07:38;5.20;;;2.88;;
63902;SDS011;50072;50.678;13.938;2023-05-10T01:10:05;4.75;;;2.70;;
63902;SDS011;50072;50.678;13.938;2023-05-10T01:12:32;4.82;;;3.00;;
63902;SDS011;50072;50.678;13.938;2023-05-10T01:15:00;7.20;;;2.90;;
63902;SDS011;50072;50.678;13.938;2023-05-10T01:17:27;4.78;;;2.80;;
63902;SDS011;50072;50.678;13.938;2023-05-10T01:19:53;5.07;;;2.72;;
63902;SDS011;50072;50.678;13.938;2023-05-10T01:28:01;4.65;;;2.80;;
63902;SDS011;50072;50.678;13.938;2023-05-10T01:30:53;6.15;;;3.15;;
63902;SDS011;50072;50.678;13.938;2023-05-10T01:33:39;6.55;;;3.10;;
63902;SDS011;50072;50.678;13.938;2023-05-10T01:36:19;6.05;;;3.05;;
63902;SDS011;50072;50.678;13.938;2023-05-10T01:39:06;4.03;;;2.67;;
63902;SDS011;50072;50.678;13.938;2023-05-10T01:41:41;7.30;;;3.65;;
63902;SDS011;50072;50.678;13.938;2023-05-10T01:44:12;5.85;;;3.08;;
63902;SDS011;50072;50.678;13.938;2023-05-10T01:49:08;5.63;;;2.95;;
63902;SDS011;50072;50.678;13.938;2023-05-10T01:51:47;6.70;;;2.83;;
63902;SDS011;50072;50.678;13.938;2023-05-10T01:54:17;7.80;;;3.30;;
63902;SDS011;50072;50.678;13.938;2023-05-10T01:56:47;5.65;;;3.10;;
63902;SDS011;50072;50.678;13.938;2023-05-10T01:59:33;5.55;;;2.97;;
63902;SDS011;50072;50.678;13.938;2023-05-10T02:02:06;5.88;;;2.75;;
63902;SDS011;50072;50.678;13.938;2023-05-10T02:04:37;5.63;;;3.25;;
63902;SDS011;50072;50.678;13.938;2023-05-10T02:07:06;5.07;;;2.92;;
63902;SDS011;50072;50.678;13.938;2023-05-10T02:09:33;5.47;;;2.80;;
63902;SDS011;50072;50.678;13.938;2023-05-10T02:12:01;9.00;;;3.30;;
63902;SDS011;50072;50.678;13.938;2023-05-10T02:14:32;4.22;;;2.83;;
63902;SDS011;50072;50.678;13.938;2023-05-10T02:17:01;5.78;;;2.90;;
63902;SDS011;50072;50.678;13.938;2023-05-10T02:19:29;4.93;;;3.00;;
63902;SDS011;50072;50.678;13.938;2023-05-10T02:21:58;5.90;;;3.40;;
63902;SDS011;50072;50.678;13.938;2023-05-10T02:24:26;6.93;;;3.17;;
63902;SDS011;50072;50.678;13.938;2023-05-10T02:26:53;4.75;;;2.97;;
63902;SDS011;50072;50.678;13.938;2023-05-10T02:29:23;7.22;;;3.30;;
63902;SDS011;50072;50.678;13.938;2023-05-10T02:31:53;6.95;;;2.72;;
63902;SDS011;50072;50.678;13.938;2023-05-10T02:34:21;5.43;;;2.85;;
63902;SDS011;50072;50.678;13.938;2023-05-10T02:36:48;6.30;;;2.90;;
63902;SDS011;50072;50.678;13.938;2023-05-10T02:39:16;5.70;;;3.00;;
63902;SDS011;50072;50.678;13.938;2023-05-10T02:41:46;7.50;;;3.10;;
63902;SDS011;50072;50.678;13.938;2023-05-10T02:44:14;7.32;;;2.75;;
63902;SDS011;50072;50.678;13.938;2023-05-10T02:46:43;7.30;;;2.78;;
63902;SDS011;50072;50.678;13.938;2023-05-10T02:49:09;7.80;;;3.08;;
63902;SDS011;50072;50.678;13.938;2023-05-10T02:51:35;5.75;;;3.08;;
63902;SDS011;50072;50.678;13.938;2023-05-10T02:54:19;5.50;;;2.97;;
63902;SDS011;50072;50.678;13.938;2023-05-10T02:56:50;4.88;;;2.70;;
63902;SDS011;50072;50.678;13.938;2023-05-10T02:59:20;5.47;;;3.00;;
63902;SDS011;50072;50.678;13.938;2023-05-10T03:01:46;4.72;;;3.00;;
63902;SDS011;50072;50.678;13.938;2023-05-10T03:04:12;5.75;;;3.33;;
63902;SDS011;50072;50.678;13.938;2023-05-10T03:06:38;6.05;;;3.30;;
63902;SDS011;50072;50.678;13.938;2023-05-10T03:09:05;7.88;;;3.45;;
63902;SDS011;50072;50.678;13.938;2023-05-10T03:11:34;5.25;;;3.20;;
63902;SDS011;50072;50.678;13.938;2023-05-10T03:20:15;5.60;;;3.38;;
63902;SDS011;50072;50.678;13.938;2023-05-10T03:22:37;8.02;;;3.33;;
63902;SDS011;50072;50.678;13.938;2023-05-10T03:25:06;6.03;;;3.53;;
63902;SDS011;50072;50.678;13.938;2023-05-10T03:27:36;7.20;;;3.15;;
63902;SDS011;50072;50.678;13.938;2023-05-10T03:30:04;5.82;;;3.28;;
63902;SDS011;50072;50.678;13.938;2023-05-10T03:32:34;5.68;;;3.65;;
63902;SDS011;50072;50.678;13.938;2023-05-10T03:35:01;9.05;;;3.92;;
63902;SDS011;50072;50.678;13.938;2023-05-10T03:37:31;7.75;;;4.13;;
63902;SDS011;50072;50.678;13.938;2023-05-10T03:39:57;7.22;;;3.53;;
63902;SDS011;50072;50.678;13.938;2023-05-10T03:42:23;10.05;;;3.97;;
63902;SDS011;50072;50.678;13.938;2023-05-10T03:44:48;8.98;;;3.67;;
63902;SDS011;50072;50.678;13.938;2023-05-10T03:47:15;5.47;;;3.20;;
63902;SDS011;50072;50.678;13.938;2023-05-10T03:49:41;7.30;;;3.40;;
63902;SDS011;50072;50.678;13.938;2023-05-10T03:52:07;6.78;;;3.50;;
63902;SDS011;50072;50.678;13.938;2023-05-10T03:54:32;9.55;;;3.38;;
63902;SDS011;50072;50.678;13.938;2023-05-10T03:56:58;7.75;;;4.15;;
63902;SDS011;50072;50.678;13.938;2023-05-10T03:59:25;6.93;;;3.38;;
63902;SDS011;50072;50.678;13.938;2023-05-10T04:01:51;8.02;;;3.88;;
63902;SDS011;50072;50.678;13.938;2023-05-10T04:04:17;9.38;;;5.20;;
63902;SDS011;50072;50.678;13.938;2023-05-10T04:06:44;15.20;;;5.80;;
63902;SDS011;50072;50.678;13.938;2023-05-10T04:09:10;11.77;;;5.05;;
63902;SDS011;50072;50.678;13.938;2023-05-10T04:11:36;8.68;;;4.60;;
63902;SDS011;50072;50.678;13.938;2023-05-10T04:14:01;9.07;;;5.50;;
63902;SDS011;50072;50.678;13.938;2023-05-10T04:16:27;11.13;;;4.55;;
63902;SDS011;50072;50.678;13.938;2023-05-10T04:18:53;7.50;;;4.35;;
63902;SDS011;50072;50.678;13.938;2023-05-10T04:21:19;8.77;;;4.40;;
63902;SDS011;50072;50.678;13.938;2023-05-10T04:23:45;8.48;;;3.58;;
63902;SDS011;50072;50.678;13.938;2023-05-10T04:26:11;7.13;;;3.70;;
63902;SDS011;50072;50.678;13.938;2023-05-10T04:28:37;7.05;;;3.85;;
63902;SDS011;50072;50.678;13.938;2023-05-10T04:31:03;6.82;;;3.60;;
63902;SDS011;50072;50.678;13.938;2023-05-10T04:33:30;6.20;;;3.22;;
63902;SDS011;50072;50.678;13.938;2023-05-10T04:35:57;6.05;;;3.00;;
63902;SDS011;50072;50.678;13.938;2023-05-10T04:38:23;8.82;;;3.42;;
63902;SDS011;50072;50.678;13.938;2023-05-10T04:40:49;7.05;;;4.50;;
63902;SDS011;50072;50.678;13.938;2023-05-10T04:43:15;7.88;;;3.45;;
63902;SDS011;50072;50.678;13.938;2023-05-10T04:45:41;5.93;;;3.28;;
63902;SDS011;50072;50.678;13.938;2023-05-10T04:48:06;5.95;;;3.40;;
63902;SDS011;50072;50.678;13.938;2023-05-10T04:50:33;8.50;;;3.30;;
63902;SDS011;50072;50.678;13.938;2023-05-10T04:52:58;6.43;;;3.25;;
63902;SDS011;50072;50.678;13.938;2023-05-10T04:55:24;6.88;;;3.38;;
63902;SDS011;50072;50.678;13.938;2023-05-10T04:57:51;8.30;;;3.08;;
63902;SDS011;50072;50.678;13.938;2023-05-10T05:00:18;6.47;;;3.40;;
63902;SDS011;50072;50.678;13.938;2023-05-10T05:02:44;8.30;;;3.13;;
63902;SDS011;50072;50.678;13.938;2023-05-10T05:05:11;9.18;;;3.15;;
63902;SDS011;50072;50.678;13.938;2023-05-10T05:07:38;10.15;;;3.35;;
63902;SDS011;50072;50.678;13.938;2023-05-10T05:10:07;7.85;;;3.28;;
63902;SDS011;50072;50.678;13.938;2023-05-10T05:12:34;11.95;;;3.83;;
63902;SDS011;50072;50.678;13.938;2023-05-10T05:15:01;8.82;;;3.10;;
63902;SDS011;50072;50.678;13.938;2023-05-10T05:17:27;6.13;;;2.97;;
63902;SDS011;50072;50.678;13.938;2023-05-10T05:19:55;9.70;;;3.58;;
63902;SDS011;50072;50.678;13.938;2023-05-10T05:22:21;5.97;;;3.10;;
63902;SDS011;50072;50.678;13.938;2023-05-10T05:24:56;11.30;;;3.00;;
63902;SDS011;50072;50.678;13.938;2023-05-10T05:27:23;5.00;;;3.05;;
63902;SDS011;50072;50.678;13.938;2023-05-10T05:29:55;7.22;;;2.97;;
63902;SDS011;50072;50.678;13.938;2023-05-10T05:32:21;6.60;;;2.88;;
63902;SDS011;50072;50.678;13.938;2023-05-10T05:34:50;8.32;;;3.03;;
63902;SDS011;50072;50.678;13.938;2023-05-10T05:37:18;7.80;;;2.53;;
63902;SDS011;50072;50.678;13.938;2023-05-10T05:39:46;6.95;;;2.90;;
63902;SDS011;50072;50.678;13.938;2023-05-10T05:42:12;6.88;;;2.60;;
63902;SDS011;50072;50.678;13.938;2023-05-10T05:44:41;5.32;;;2.25;;
63902;SDS011;50072;50.678;13.938;2023-05-10T05:47:07;9.55;;;2.70;;
63902;SDS011;50072;50.678;13.938;2023-05-10T05:49:33;4.03;;;2.53;;
63902;SDS011;50072;50.678;13.938;2023-05-10T05:52:00;4.55;;;2.33;;
63902;SDS011;50072;50.678;13.938;2023-05-10T05:54:29;4.38;;;2.50;;
63902;SDS011;50072;50.678;13.938;2023-05-10T05:56:57;5.93;;;2.60;;
63902;SDS011;50072;50.678;13.938;2023-05-10T05:59:25;6.07;;;2.83;;
63902;SDS011;50072;50.678;13.938;2023-05-10T06:01:51;5.13;;;2.55;;
63902;SDS011;50072;50.678;13.938;2023-05-10T06:04:18;5.68;;;2.72;;
63902;SDS011;50072;50.678;13.938;2023-05-10T06:06:44;5.00;;;2.55;;
63902;SDS011;50072;50.678;13.938;2023-05-10T06:09:10;4.80;;;2.50;;
63902;SDS011;50072;50.678;13.938;2023-05-10T06:11:37;5.45;;;2.65;;
63902;SDS011;50072;50.678;13.938;2023-05-10T06:14:03;5.53;;;2.67;;
63902;SDS011;50072;50.678;13.938;2023-05-10T06:16:35;4.18;;;2.60;;
63902;SDS011;50072;50.678;13.938;2023-05-10T06:19:01;5.07;;;2.67;;
63902;SDS011;50072;50.678;13.938;2023-05-10T06:21:28;6.65;;;2.28;;
63902;SDS011;50072;50.678;13.938;2023-05-10T06:23:55;10.95;;;2.47;;
63902;SDS011;50072;50.678;13.938;2023-05-10T06:26:21;3.92;;;2.20;;
63902;SDS011;50072;50.678;13.938;2023-05-10T06:28:47;5.53;;;2.45;;
63902;SDS011;50072;50.678;13.938;2023-05-10T06:31:14;5.03;;;2.20;;
63902;SDS011;50072;50.678;13.938;2023-05-10T06:33:41;6.68;;;2.60;;
63902;SDS011;50072;50.678;13.938;2023-05-10T06:36:08;5.78;;;2.50;;
63902;SDS011;50072;50.678;13.938;2023-05-10T06:38:33;6.05;;;2.50;;
63902;SDS011;50072;50.678;13.938;2023-05-10T06:41:00;6.88;;;2.35;;
63902;SDS011;50072;50.678;13.938;2023-05-10T06:43:26;5.70;;;2.33;;
63902;SDS011;50072;50.678;13.938;2023-05-10T06:45:54;6.72;;;2.60;;
63902;SDS011;50072;50.678;13.938;2023-05-10T06:48:20;7.03;;;2.47;;
63902;SDS011;50072;50.678;13.938;2023-05-10T06:50:46;10.95;;;2.50;;
63902;SDS011;50072;50.678;13.938;2023-05-10T06:53:12;6.32;;;2.90;;
63902;SDS011;50072;50.678;13.938;2023-05-10T06:55:39;4.28;;;2.60;;
63902;SDS011;50072;50.678;13.938;2023-05-10T06:58:05;6.88;;;2.88;;
63902;SDS011;50072;50.678;13.938;2023-05-10T07:00:32;6.32;;;2.78;;
63902;SDS011;50072;50.678;13.938;2023-05-10T07:02:58;5.72;;;2.60;;
63902;SDS011;50072;50.678;13.938;2023-05-10T07:05:24;3.97;;;2.53;;
63902;SDS011;50072;50.678;13.938;2023-05-10T07:07:50;5.22;;;2.80;;
63902;SDS011;50072;50.678;13.938;2023-05-10T07:10:17;7.07;;;2.80;;
63902;SDS011;50072;50.678;13.938;2023-05-10T07:12:42;6.78;;;2.40;;
63902;SDS011;50072;50.678;13.938;2023-05-10T07:15:08;6.88;;;3.00;;
63902;SDS011;50072;50.678;13.938;2023-05-10T07:17:34;3.88;;;2.40;;
63902;SDS011;50072;50.678;13.938;2023-05-10T07:20:00;5.50;;;2.90;;
63902;SDS011;50072;50.678;13.938;2023-05-10T07:22:26;4.78;;;2.90;;
63902;SDS011;50072;50.678;13.938;2023-05-10T07:24:52;5.68;;;2.60;;
63902;SDS011;50072;50.678;13.938;2023-05-10T07:27:18;5.53;;;3.17;;
63902;SDS011;50072;50.678;13.938;2023-05-10T07:29:44;5.10;;;2.55;;
63902;SDS011;50072;50.678;13.938;2023-05-10T07:32:10;5.13;;;2.80;;
63902;SDS011;50072;50.678;13.938;2023-05-10T07:34:36;6.95;;;2.90;;
63902;SDS011;50072;50.678;13.938;2023-05-10T07:37:02;4.50;;;2.85;;
63902;SDS011;50072;50.678;13.938;2023-05-10T07:39:28;7.53;;;2.78;;
63902;SDS011;50072;50.678;13.938;2023-05-10T07:41:54;5.40;;;2.75;;
63902;SDS011;50072;50.678;13.938;2023-05-10T07:44:20;4.93;;;2.70;;
63902;SDS011;50072;50.678;13.938;2023-05-10T07:46:46;6.15;;;2.80;;
63902;SDS011;50072;50.678;13.938;2023-05-10T07:49:13;4.90;;;2.97;;
63902;SDS011;50072;50.678;13.938;2023-05-10T07:51:38;5.57;;;2.90;;
63902;SDS011;50072;50.678;13.938;2023-05-10T07:54:04;7.63;;;2.88;;
63902;SDS011;50072;50.678;13.938;2023-05-10T07:56:30;6.95;;;2.80;;
63902;SDS011;50072;50.678;13.938;2023-05-10T07:58:58;6.53;;;3.70;;
63902;SDS011;50072;50.678;13.938;2023-05-10T08:01:25;5.03;;;3.13;;
63902;SDS011;50072;50.678;13.938;2023-05-10T08:03:52;8.02;;;2.85;;
63902;SDS011;50072;50.678;13.938;2023-05-10T08:06:19;5.70;;;3.10;;
63902;SDS011;50072;50.678;13.938;2023-05-10T08:08:47;10.70;;;3.28;;
63902;SDS011;50072;50.678;13.938;2023-05-10T08:11:18;9.10;;;2.95;;
63902;SDS011;50072;50.678;13.938;2023-05-10T08:13:45;4.15;;;2.63;;
63902;SDS011;50072;50.678;13.938;2023-05-10T08:16:10;5.30;;;2.80;;
63902;SDS011;50072;50.678;13.938;2023-05-10T08:18:37;5.43;;;3.20;;
63902;SDS011;50072;50.678;13.938;2023-05-10T08:21:03;6.15;;;2.75;;
63902;SDS011;50072;50.678;13.938;2023-05-10T08:23:30;5.80;;;3.25;;
63902;SDS011;50072;50.678;13.938;2023-05-10T08:25:55;5.13;;;3.10;;
63902;SDS011;50072;50.678;13.938;2023-05-10T08:28:21;6.43;;;3.00;;
63902;SDS011;50072;50.678;13.938;2023-05-10T08:30:47;6.45;;;3.00;;
63902;SDS011;50072;50.678;13.938;2023-05-10T08:33:13;7.13;;;3.30;;
63902;SDS011;50072;50.678;13.938;2023-05-10T08:35:39;8.38;;;3.28;;
63902;SDS011;50072;50.678;13.938;2023-05-10T08:38:04;6.65;;;3.42;;
63902;SDS011;50072;50.678;13.938;2023-05-10T08:40:30;5.47;;;2.67;;
63902;SDS011;50072;50.678;13.938;2023-05-10T08:45:33;5.38;;;3.30;;
63902;SDS011;50072;50.678;13.938;2023-05-10T08:48:04;6.70;;;3.10;;
63902;SDS011;50072;50.678;13.938;2023-05-10T08:50:31;6.38;;;3.17;;
63902;SDS011;50072;50.678;13.938;2023-05-10T08:52:59;5.07;;;3.15;;
63902;SDS011;50072;50.678;13.938;2023-05-10T08:55:26;5.95;;;3.00;;
63902;SDS011;50072;50.678;13.938;2023-05-10T08:57:53;7.40;;;2.88;;
63902;SDS011;50072;50.678;13.938;2023-05-10T09:00:19;7.80;;;3.40;;
63902;SDS011;50072;50.678;13.938;2023-05-10T09:02:45;8.77;;;3.20;;
63902;SDS011;50072;50.678;13.938;2023-05-10T09:05:13;6.03;;;3.45;;
63902;SDS011;50072;50.678;13.938;2023-05-10T09:07:41;4.80;;;3.17;;
63902;SDS011;50072;50.678;13.938;2023-05-10T09:10:07;8.30;;;3.10;;
63902;SDS011;50072;50.678;13.938;2023-05-10T09:12:35;4.80;;;2.92;;
63902;SDS011;50072;50.678;13.938;2023-05-10T09:15:01;4.97;;;2.90;;
63902;SDS011;50072;50.678;13.938;2023-05-10T09:17:28;6.00;;;3.38;;
63902;SDS011;50072;50.678;13.938;2023-05-10T09:20:02;6.22;;;3.10;;
63902;SDS011;50072;50.678;13.938;2023-05-10T09:22:33;6.40;;;2.88;;
63902;SDS011;50072;50.678;13.938;2023-05-10T09:25:12;4.80;;;2.90;;
63902;SDS011;50072;50.678;13.938;2023-05-10T09:27:41;7.07;;;3.17;;
63902;SDS011;50072;50.678;13.938;2023-05-10T09:30:10;5.90;;;2.83;;
63902;SDS011;50072;50.678;13.938;2023-05-10T09:32:43;5.50;;;3.50;;
63902;SDS011;50072;50.678;13.938;2023-05-10T09:35:10;6.00;;;3.30;;
63902;SDS011;50072;50.678;13.938;2023-05-10T09:37:41;6.22;;;2.85;;
63902;SDS011;50072;50.678;13.938;2023-05-10T09:40:11;3.95;;;3.00;;
63902;SDS011;50072;50.678;13.938;2023-05-10T09:42:38;5.85;;;3.15;;
63902;SDS011;50072;50.678;13.938;2023-05-10T09:45:04;3.78;;;2.65;;
63902;SDS011;50072;50.678;13.938;2023-05-10T09:47:32;4.40;;;3.20;;
63902;SDS011;50072;50.678;13.938;2023-05-10T09:49:59;6.00;;;3.40;;
63902;SDS011;50072;50.678;13.938;2023-05-10T09:55:18;9.85;;;3.60;;
63902;SDS011;50072;50.678;13.938;2023-05-10T09:57:49;5.72;;;3.28;;
63902;SDS011;50072;50.678;13.938;2023-05-10T10:00:23;5.43;;;2.97;;
63902;SDS011;50072;50.678;13.938;2023-05-10T10:02:56;6.10;;;3.38;;
63902;SDS011;50072;50.678;13.938;2023-05-10T10:05:56;5.80;;;3.28;;
63902;SDS011;50072;50.678;13.938;2023-05-10T10:08:16;9.32;;;3.75;;
63902;SDS011;50072;50.678;13.938;2023-05-10T10:10:42;6.05;;;3.20;;
63902;SDS011;50072;50.678;13.938;2023-05-10T10:13:10;7.10;;;3.80;;
63902;SDS011;50072;50.678;13.938;2023-05-10T10:15:36;7.35;;;3.60;;
63902;SDS011;50072;50.678;13.938;2023-05-10T10:18:02;7.70;;;3.50;;
63902;SDS011;50072;50.678;13.938;2023-05-10T10:20:30;6.20;;;3.08;;
63902;SDS011;50072;50.678;13.938;2023-05-10T10:22:55;4.75;;;3.20;;
63902;SDS011;50072;50.678;13.938;2023-05-10T10:25:21;6.20;;;3.53;;
63902;SDS011;50072;50.678;13.938;2023-05-10T10:33:13;4.93;;;3.20;;
63902;SDS011;50072;50.678;13.938;2023-05-10T10:36:05;5.05;;;3.08;;
63902;SDS011;50072;50.678;13.938;2023-05-10T10:52:17;6.82;;;3.78;;
63902;SDS011;50072;50.678;13.938;2023-05-10T10:55:06;5.53;;;3.10;;
63902;SDS011;50072;50.678;13.938;2023-05-10T10:57:56;5.35;;;3.38;;
63902;SDS011;50072;50.678;13.938;2023-05-10T11:00:35;5.90;;;2.78;;
63902;SDS011;50072;50.678;13.938;2023-05-10T11:03:11;4.88;;;3.38;;
63902;SDS011;50072;50.678;13.938;2023-05-10T11:05:47;5.50;;;2.88;;
63902;SDS011;50072;50.678;13.938;2023-05-10T11:10:48;4.18;;;2.60;;
63902;SDS011;50072;50.678;13.938;2023-05-10T11:13:26;4.32;;;2.80;;
63902;SDS011;50072;50.678;13.938;2023-05-10T11:15:56;4.32;;;2.65;;
63902;SDS011;50072;50.678;13.938;2023-05-10T11:18:24;4.40;;;2.30;;
63902;SDS011;50072;50.678;13.938;2023-05-10T11:20:57;4.93;;;2.55;;
63902;SDS011;50072;50.678;13.938;2023-05-10T11:26:09;5.05;;;2.50;;
63902;SDS011;50072;50.678;13.938;2023-05-10T11:28:40;4.20;;;2.63;;
63902;SDS011;50072;50.678;13.938;2023-05-10T11:31:07;5.88;;;2.92;;
63902;SDS011;50072;50.678;13.938;2023-05-10T11:33:46;4.78;;;2.58;;
63902;SDS011;50072;50.678;13.938;2023-05-10T11:36:14;5.18;;;2.88;;
63902;SDS011;50072;50.678;13.938;2023-05-10T11:38:42;3.95;;;2.50;;
63902;SDS011;50072;50.678;13.938;2023-05-10T11:41:11;4.65;;;2.67;;
63902;SDS011;50072;50.678;13.938;2023-05-10T11:43:40;4.07;;;2.42;;
63902;SDS011;50072;50.678;13.938;2023-05-10T11:46:08;5.95;;;2.50;;
63902;SDS011;50072;50.678;13.938;2023-05-10T11:48:40;3.70;;;2.17;;
63902;SDS011;50072;50.678;13.938;2023-05-10T11:51:08;4.13;;;2.40;;
63902;SDS011;50072;50.678;13.938;2023-05-10T11:53:36;3.95;;;2.30;;
63902;SDS011;50072;50.678;13.938;2023-05-10T11:56:03;6.43;;;2.35;;
63902;SDS011;50072;50.678;13.938;2023-05-10T11:58:33;3.97;;;2.33;;
63902;SDS011;50072;50.678;13.938;2023-05-10T12:01:00;3.60;;;2.20;;
63902;SDS011;50072;50.678;13.938;2023-05-10T12:03:27;3.85;;;2.40;;
63902;SDS011;50072;50.678;13.938;2023-05-10T12:05:54;3.97;;;2.22;;
63902;SDS011;50072;50.678;13.938;2023-05-10T12:08:22;4.60;;;2.47;;
63902;SDS011;50072;50.678;13.938;2023-05-10T12:10:50;3.75;;;2.30;;
63902;SDS011;50072;50.678;13.938;2023-05-10T12:13:16;4.63;;;2.10;;
63902;SDS011;50072;50.678;13.938;2023-05-10T12:15:43;4.15;;;2.47;;
63902;SDS011;50072;50.678;13.938;2023-05-10T12:18:09;4.05;;;2.45;;
63902;SDS011;50072;50.678;13.938;2023-05-10T12:20:37;4.95;;;2.65;;
63902;SDS011;50072;50.678;13.938;2023-05-10T12:23:03;5.38;;;2.85;;
63902;SDS011;50072;50.678;13.938;2023-05-10T12:25:30;6.13;;;2.70;;
63902;SDS011;50072;50.678;13.938;2023-05-10T12:28:00;5.88;;;2.90;;
63902;SDS011;50072;50.678;13.938;2023-05-10T12:30:31;6.22;;;2.83;;
63902;SDS011;50072;50.678;13.938;2023-05-10T12:33:02;6.20;;;2.78;;
63902;SDS011;50072;50.678;13.938;2023-05-10T12:35:43;6.63;;;3.03;;
63902;SDS011;50072;50.678;13.938;2023-05-10T12:41:00;3.63;;;2.60;;
63902;SDS011;50072;50.678;13.938;2023-05-10T12:43:26;3.63;;;2.60;;
63902;SDS011;50072;50.678;13.938;2023-05-10T12:45:52;6.32;;;2.63;;
63902;SDS011;50072;50.678;13.938;2023-05-10T12:48:18;4.82;;;2.50;;
63902;SDS011;50072;50.678;13.938;2023-05-10T12:50:45;4.68;;;2.70;;
63902;SDS011;50072;50.678;13.938;2023-05-10T12:53:12;8.35;;;2.80;;
63902;SDS011;50072;50.678;13.938;2023-05-10T12:55:41;5.32;;;3.10;;
63902;SDS011;50072;50.678;13.938;2023-05-10T12:58:07;6.70;;;2.70;;
63902;SDS011;50072;50.678;13.938;2023-05-10T13:00:33;6.97;;;2.55;;
63902;SDS011;50072;50.678;13.938;2023-05-10T13:02:59;3.95;;;2.60;;
63902;SDS011;50072;50.678;13.938;2023-05-10T13:05:24;5.13;;;2.90;;
63902;SDS011;50072;50.678;13.938;2023-05-10T13:07:50;5.25;;;2.60;;
63902;SDS011;50072;50.678;13.938;2023-05-10T13:10:16;3.63;;;2.47;;
63902;SDS011;50072;50.678;13.938;2023-05-10T13:12:42;4.70;;;2.50;;
63902;SDS011;50072;50.678;13.938;2023-05-10T13:15:08;4.53;;;2.55;;
63902;SDS011;50072;50.678;13.938;2023-05-10T13:17:34;8.13;;;2.53;;
63902;SDS011;50072;50.678;13.938;2023-05-10T13:20:00;4.53;;;2.80;;
63902;SDS011;50072;50.678;13.938;2023-05-10T13:22:26;4.95;;;3.05;;
63902;SDS011;50072;50.678;13.938;2023-05-10T13:24:52;5.80;;;2.50;;
63902;SDS011;50072;50.678;13.938;2023-05-10T13:27:17;4.38;;;2.75;;
63902;SDS011;50072;50.678;13.938;2023-05-10T13:29:43;6.28;;;2.78;;
63902;SDS011;50072;50.678;13.938;2023-05-10T13:32:09;8.15;;;2.38;;
63902;SDS011;50072;50.678;13.938;2023-05-10T13:34:36;6.60;;;2.90;;
63902;SDS011;50072;50.678;13.938;2023-05-10T13:37:01;3.60;;;2.35;;
63902;SDS011;50072;50.678;13.938;2023-05-10T13:39:32;3.58;;;2.30;;
63902;SDS011;50072;50.678;13.938;2023-05-10T13:42:03;5.32;;;2.35;;
63902;SDS011;50072;50.678;13.938;2023-05-10T13:44:36;3.95;;;2.58;;
63902;SDS011;50072;50.678;13.938;2023-05-10T13:47:06;5.38;;;2.50;;
63902;SDS011;50072;50.678;13.938;2023-05-10T13:49:34;8.95;;;2.72;;
63902;SDS011;50072;50.678;13.938;2023-05-10T13:52:17;6.18;;;2.55;;
63902;SDS011;50072;50.678;13.938;2023-05-10T13:54:49;3.70;;;2.90;;
63902;SDS011;50072;50.678;13.938;2023-05-10T13:57:17;6.25;;;2.60;;
63902;SDS011;50072;50.678;13.938;2023-05-10T13:59:47;5.53;;;2.70;;
63902;SDS011;50072;50.678;13.938;2023-05-10T14:02:13;3.53;;;2.63;;
63902;SDS011;50072;50.678;13.938;2023-05-10T14:04:39;3.50;;;2.42;;
63902;SDS011;50072;50.678;13.938;2023-05-10T14:07:04;6.65;;;2.78;;
63902;SDS011;50072;50.678;13.938;2023-05-10T14:12:02;4.43;;;3.03;;
63902;SDS011;50072;50.678;13.938;2023-05-10T14:17:10;7.95;;;2.80;;
63902;SDS011;50072;50.678;13.938;2023-05-10T14:19:36;5.78;;;3.72;;
63902;SDS011;50072;50.678;13.938;2023-05-10T14:22:02;10.05;;;3.92;;
63902;SDS011;50072;50.678;13.938;2023-05-10T14:24:29;7.45;;;4.00;;
63902;SDS011;50072;50.678;13.938;2023-05-10T14:26:55;12.50;;;4.18;;
63902;SDS011;50072;50.678;13.938;2023-05-10T14:29:21;10.55;;;4.47;;
63902;SDS011;50072;50.678;13.938;2023-05-10T14:31:47;15.98;;;5.10;;
63902;SDS011;50072;50.678;13.938;2023-05-10T14:34:13;6.20;;;3.53;;
63902;SDS011;50072;50.678;13.938;2023-05-10T14:36:39;8.75;;;4.03;;
63902;SDS011;50072;50.678;13.938;2023-05-10T14:39:05;8.10;;;4.47;;
63902;SDS011;50072;50.678;13.938;2023-05-10T14:41:32;8.13;;;4.10;;
63902;SDS011;50072;50.678;13.938;2023-05-10T14:43:58;7.50;;;4.10;;
63902;SDS011;50072;50.678;13.938;2023-05-10T14:46:23;14.43;;;4.40;;
63902;SDS011;50072;50.678;13.938;2023-05-10T14:48:49;12.18;;;4.10;;
63902;SDS011;50072;50.678;13.938;2023-05-10T14:51:15;12.90;;;4.15;;
63902;SDS011;50072;50.678;13.938;2023-05-10T14:53:43;8.57;;;4.13;;
63902;SDS011;50072;50.678;13.938;2023-05-10T14:56:08;10.52;;;4.47;;
63902;SDS011;50072;50.678;13.938;2023-05-10T14:58:34;7.65;;;4.00;;
63902;SDS011;50072;50.678;13.938;2023-05-10T15:01:00;9.73;;;4.53;;
63902;SDS011;50072;50.678;13.938;2023-05-10T15:03:26;8.35;;;4.53;;
63902;SDS011;50072;50.678;13.938;2023-05-10T15:05:52;12.70;;;4.85;;
63902;SDS011;50072;50.678;13.938;2023-05-10T15:08:18;10.45;;;5.07;;
63902;SDS011;50072;50.678;13.938;2023-05-10T15:10:44;7.72;;;4.38;;
63902;SDS011;50072;50.678;13.938;2023-05-10T15:13:10;9.30;;;4.50;;
63902;SDS011;50072;50.678;13.938;2023-05-10T15:15:37;9.38;;;5.03;;
63902;SDS011;50072;50.678;13.938;2023-05-10T15:18:03;8.85;;;4.88;;
63902;SDS011;50072;50.678;13.938;2023-05-10T15:20:29;11.95;;;4.75;;
63902;SDS011;50072;50.678;13.938;2023-05-10T15:22:55;12.95;;;4.75;;
63902;SDS011;50072;50.678;13.938;2023-05-10T15:25:21;12.27;;;4.90;;
63902;SDS011;50072;50.678;13.938;2023-05-10T15:27:49;11.43;;;4.32;;
63902;SDS011;50072;50.678;13.938;2023-05-10T15:30:15;19.30;;;5.50;;